Elizabeth Mc Allister — WDB7652 — position and weather

sailwx.info

Track history (hours):
 
Tides and Currents Weather Stations Pressure Air Temp Water Temp Dewpoint Dewpoint Depression Visibility Wind Speed Wind Dir Waves Ship Positions

Elizabeth Mc Allister

Owner: MC ALLISTER TOWING & TRANSPORTATION INC, NEW YORK, NY. More information available from US FCC via Universal Licensing System and Coast Guard Vessel Documentation Center.

Last reported at 2015-Jun-22 17:26 UTC. Time now 2015-Jul-02 05:23 UTC.
Position N 40°35' W 074°13'.
Warning: this ship's position is 9 days out of date.

Length 31 m.

Type: Tug. MMSI: 366945680.

Date/timePositionNaut miles runAvg speedWind from/ knotsBaromVisibWave heightAir tempDewpointWater temp
2015-Jun-22 17:26N 40°35' W 074°13'3 3.4
2015-Jun-22 16:34N 40°38' W 074°12'3 3.5
2015-Jun-22 15:33N 40°40' W 074°08'0 0.2
2015-Jun-22 14:31N 40°40' W 074°08'3 3.2
2015-Jun-22 13:33N 40°39' W 074°05'2 1.8
2015-Jun-22 12:33N 40°39' W 074°07'0 0.1
2015-Jun-22 11:34N 40°39' W 074°07'3 2.8
2015-Jun-22 10:33N 40°38' W 074°04'3 2.9
2015-Jun-22 09:33N 40°39' W 074°07'2 2.1
2015-Jun-22 08:33N 40°38' W 074°10'  
2015-Jun-14 22:33N 40°38' W 074°10'0 0.0
2015-Jun-14 21:33N 40°38' W 074°10'0 0.0
2015-Jun-14 20:33N 40°38' W 074°10'0 0.0
2015-Jun-14 19:33N 40°38' W 074°10'0 0.0
2015-Jun-14 18:33N 40°38' W 074°10'0 0.0
2015-Jun-14 17:33N 40°38' W 074°10'2 1.6
2015-Jun-14 16:33N 40°40' W 074°09'2 2.0
2015-Jun-14 15:33N 40°42' W 074°08'3 3.4
2015-Jun-14 14:33N 40°39' W 074°06'2 1.8
2015-Jun-14 13:33N 40°38' W 074°04'4 4.0
2015-Jun-14 12:33N 40°39' W 074°09'3 2.7
2015-Jun-14 11:33N 40°41' W 074°08'3 3.2
2015-Jun-14 10:33N 40°38' W 074°10'0 0.0
2015-Jun-14 09:33N 40°38' W 074°10'0 0.0
2015-Jun-14 08:33N 40°38' W 074°10'0 0.0
2015-Jun-14 07:33N 40°38' W 074°10'0 0.0
2015-Jun-14 06:33N 40°38' W 074°10'0 0.0
2015-Jun-14 05:33N 40°38' W 074°10'0 0.0
2015-Jun-14 04:33N 40°38' W 074°10'0 0.0
2015-Jun-14 03:33N 40°38' W 074°10'0 0.0
2015-Jun-14 02:33N 40°38' W 074°10'0 0.0
2015-Jun-14 01:33N 40°38' W 074°10'0 0.0
2015-Jun-14 00:33N 40°38' W 074°10'0 0.0
2015-Jun-13 23:33N 40°38' W 074°10'0 0.0
2015-Jun-13 22:33N 40°38' W 074°10'0 0.0
2015-Jun-13 21:33N 40°38' W 074°10'0 0.0
2015-Jun-13 20:33N 40°38' W 074°10'0 0.0
2015-Jun-13 19:33N 40°38' W 074°10'0 0.0
2015-Jun-13 18:33N 40°38' W 074°10'1 1.5
2015-Jun-13 17:33N 40°40' W 074°09'1 1.3
2015-Jun-13 16:33N 40°41' W 074°08'3 2.6
2015-Jun-13 15:33N 40°39' W 074°05'3 3.1
2015-Jun-13 14:33N 40°38' W 074°09'1 0.6
2015-Jun-13 13:33N 40°38' W 074°10'0 0.0
2015-Jun-13 12:33N 40°38' W 074°10'0 0.0
2015-Jun-13 11:33N 40°38' W 074°10'0 0.0
2015-Jun-13 10:33N 40°38' W 074°10'5 4.7
2015-Jun-13 09:33N 40°38' W 074°04'0 0.0
2015-Jun-13 08:33N 40°38' W 074°04'0 0.1
2015-Jun-13 07:33N 40°38' W 074°04'0 0.1
2015-Jun-13 06:33N 40°38' W 074°04'0 0.1
2015-Jun-13 05:33N 40°38' W 074°04'0 0.0
2015-Jun-13 04:33N 40°38' W 074°04'0 0.0
2015-Jun-13 03:33N 40°38' W 074°04'0 0.0
2015-Jun-13 02:33N 40°38' W 074°04'0 0.0
2015-Jun-13 01:33N 40°38' W 074°04'0 0.1
2015-Jun-13 00:33N 40°38' W 074°04'0 0.2
2015-Jun-12 23:33N 40°38' W 074°04'0 0.1
2015-Jun-12 22:33N 40°38' W 074°04'0 0.0
2015-Jun-12 21:33N 40°38' W 074°04'0 0.0
2015-Jun-12 20:33N 40°38' W 074°04'0 0.1
2015-Jun-12 19:33N 40°38' W 074°04'3 3.1
2015-Jun-12 18:32N 40°35' W 074°02'5 5.4
2015-Jun-12 17:33N 40°39' W 074°07'  
Track history (hours):
 
Tides and Currents Weather Stations Pressure Air Temp Water Temp Dewpoint Dewpoint Depression Visibility Wind Speed Wind Dir Waves Ship Positions

Elizabeth Mc Allister

Owner: MC ALLISTER TOWING & TRANSPORTATION INC, NEW YORK, NY. More information available from US FCC via Universal Licensing System and Coast Guard Vessel Documentation Center.

Last reported at 2015-Jun-22 17:26 UTC. Time now 2015-Jul-02 05:23 UTC.
Position N 40°35' W 074°13'.
Warning: this ship's position is 9 days out of date.

Length 31 m.

Type: Tug. MMSI: 366945680.

Date/timePositionNaut miles runAvg speedWind from/ knotsBaromVisibWave heightAir tempDewpointWater temp
2015-Jun-22 17:26N 40°35' W 074°13'3 3.4
2015-Jun-22 16:34N 40°38' W 074°12'3 3.5
2015-Jun-22 15:33N 40°40' W 074°08'0 0.2
2015-Jun-22 14:31N 40°40' W 074°08'3 3.2
2015-Jun-22 13:33N 40°39' W 074°05'2 1.8
2015-Jun-22 12:33N 40°39' W 074°07'0 0.1
2015-Jun-22 11:34N 40°39' W 074°07'3 2.8
2015-Jun-22 10:33N 40°38' W 074°04'3 2.9
2015-Jun-22 09:33N 40°39' W 074°07'2 2.1
2015-Jun-22 08:33N 40°38' W 074°10'  
2015-Jun-14 22:33N 40°38' W 074°10'0 0.0
2015-Jun-14 21:33N 40°38' W 074°10'0 0.0
2015-Jun-14 20:33N 40°38' W 074°10'0 0.0
2015-Jun-14 19:33N 40°38' W 074°10'0 0.0
2015-Jun-14 18:33N 40°38' W 074°10'0 0.0
2015-Jun-14 17:33N 40°38' W 074°10'2 1.6
2015-Jun-14 16:33N 40°40' W 074°09'2 2.0
2015-Jun-14 15:33N 40°42' W 074°08'3 3.4
2015-Jun-14 14:33N 40°39' W 074°06'2 1.8
2015-Jun-14 13:33N 40°38' W 074°04'4 4.0
2015-Jun-14 12:33N 40°39' W 074°09'3 2.7
2015-Jun-14 11:33N 40°41' W 074°08'3 3.2
2015-Jun-14 10:33N 40°38' W 074°10'0 0.0
2015-Jun-14 09:33N 40°38' W 074°10'0 0.0
2015-Jun-14 08:33N 40°38' W 074°10'0 0.0
2015-Jun-14 07:33N 40°38' W 074°10'0 0.0
2015-Jun-14 06:33N 40°38' W 074°10'0 0.0
2015-Jun-14 05:33N 40°38' W 074°10'0 0.0
2015-Jun-14 04:33N 40°38' W 074°10'0 0.0
2015-Jun-14 03:33N 40°38' W 074°10'0 0.0
2015-Jun-14 02:33N 40°38' W 074°10'0 0.0
2015-Jun-14 01:33N 40°38' W 074°10'0 0.0
2015-Jun-14 00:33N 40°38' W 074°10'0 0.0
2015-Jun-13 23:33N 40°38' W 074°10'0 0.0
2015-Jun-13 22:33N 40°38' W 074°10'0 0.0
2015-Jun-13 21:33N 40°38' W 074°10'0 0.0
2015-Jun-13 20:33N 40°38' W 074°10'0 0.0
2015-Jun-13 19:33N 40°38' W 074°10'0 0.0
2015-Jun-13 18:33N 40°38' W 074°10'1 1.5
2015-Jun-13 17:33N 40°40' W 074°09'1 1.3
2015-Jun-13 16:33N 40°41' W 074°08'3 2.6
2015-Jun-13 15:33N 40°39' W 074°05'3 3.1
2015-Jun-13 14:33N 40°38' W 074°09'1 0.6
2015-Jun-13 13:33N 40°38' W 074°10'0 0.0
2015-Jun-13 12:33N 40°38' W 074°10'0 0.0
2015-Jun-13 11:33N 40°38' W 074°10'0 0.0
2015-Jun-13 10:33N 40°38' W 074°10'5 4.7
2015-Jun-13 09:33N 40°38' W 074°04'0 0.0
2015-Jun-13 08:33N 40°38' W 074°04'0 0.1
2015-Jun-13 07:33N 40°38' W 074°04'0 0.1
2015-Jun-13 06:33N 40°38' W 074°04'0 0.1
2015-Jun-13 05:33N 40°38' W 074°04'0 0.0
2015-Jun-13 04:33N 40°38' W 074°04'0 0.0
2015-Jun-13 03:33N 40°38' W 074°04'0 0.0
2015-Jun-13 02:33N 40°38' W 074°04'0 0.0
2015-Jun-13 01:33N 40°38' W 074°04'0 0.1
2015-Jun-13 00:33N 40°38' W 074°04'0 0.2
2015-Jun-12 23:33N 40°38' W 074°04'0 0.1
2015-Jun-12 22:33N 40°38' W 074°04'0 0.0
2015-Jun-12 21:33N 40°38' W 074°04'0 0.0
2015-Jun-12 20:33N 40°38' W 074°04'0 0.1
2015-Jun-12 19:33N 40°38' W 074°04'3 3.1
2015-Jun-12 18:32N 40°35' W 074°02'5 5.4
2015-Jun-12 17:33N 40°39' W 074°07'  

Dump ship's entire track history